createdAt,value
2018-10-03T00:00:06.621Z,50.60
2018-10-03T00:02:35.383Z,50.80
2018-10-03T00:05:04.153Z,50.80
2018-10-03T00:07:32.784Z,50.70
2018-10-03T00:10:01.452Z,50.80
2018-10-03T00:12:30.085Z,51.60
2018-10-03T00:14:58.750Z,51.00
2018-10-03T00:17:27.445Z,51.00
2018-10-03T00:19:56.067Z,51.10
2018-10-03T00:22:24.864Z,51.10
2018-10-03T00:24:53.537Z,51.30
2018-10-03T00:27:22.236Z,51.40
2018-10-03T00:29:50.864Z,51.40
2018-10-03T00:32:19.547Z,51.40
2018-10-03T00:34:48.203Z,51.60
2018-10-03T00:37:16.884Z,51.70
2018-10-03T00:39:45.542Z,52.40
2018-10-03T00:42:14.197Z,51.70
2018-10-03T00:44:42.874Z,51.60
2018-10-03T00:47:11.560Z,51.70
2018-10-03T00:49:40.230Z,51.70
2018-10-03T00:52:08.899Z,51.80
2018-10-03T00:54:37.532Z,52.00
2018-10-03T00:57:06.214Z,52.10
2018-10-03T00:59:34.913Z,52.20
2018-10-03T01:02:03.588Z,52.20
2018-10-03T01:04:32.291Z,52.30
2018-10-03T01:07:00.943Z,52.20
2018-10-03T01:09:29.628Z,52.30
2018-10-03T01:11:58.260Z,52.40
2018-10-03T01:14:26.906Z,52.80
2018-10-03T01:16:55.547Z,53.00
2018-10-03T01:19:24.189Z,53.00
2018-10-03T01:21:52.905Z,53.30
2018-10-03T01:24:21.668Z,53.90
2018-10-03T01:26:50.360Z,54.30
2018-10-03T01:29:19.045Z,54.60
2018-10-03T01:31:47.717Z,55.00
2018-10-03T01:34:16.379Z,55.10
2018-10-03T01:36:45.044Z,55.30
2018-10-03T01:39:13.740Z,55.50
2018-10-03T01:41:42.490Z,55.70
2018-10-03T01:44:11.172Z,55.70
2018-10-03T01:46:39.806Z,55.60
2018-10-03T01:49:08.628Z,55.60
2018-10-03T01:51:37.348Z,55.50
2018-10-03T01:54:06.063Z,55.70
2018-10-03T01:56:34.737Z,55.80
2018-10-03T01:59:03.453Z,55.80
2018-10-03T02:01:32.109Z,56.20
2018-10-03T02:04:00.753Z,56.80
2018-10-03T02:06:29.404Z,57.20
2018-10-03T02:08:58.074Z,57.50
2018-10-03T02:11:26.731Z,57.60
2018-10-03T02:13:55.378Z,57.30
2018-10-03T02:16:24.020Z,57.10
2018-10-03T02:18:52.653Z,56.80
2018-10-03T02:21:21.296Z,56.50
2018-10-03T02:23:50.003Z,56.60
2018-10-03T02:26:18.625Z,56.50
2018-10-03T02:28:47.261Z,56.70
2018-10-03T02:31:15.944Z,57.30
2018-10-03T02:33:44.741Z,57.30
2018-10-03T02:36:13.394Z,57.80
2018-10-03T02:38:42.024Z,58.30
2018-10-03T02:41:10.684Z,58.60
2018-10-03T02:43:39.361Z,58.60
2018-10-03T02:46:08.004Z,58.10
2018-10-03T02:48:36.649Z,57.80
2018-10-03T02:51:05.274Z,57.70
2018-10-03T02:53:33.948Z,57.90
2018-10-03T02:56:02.637Z,58.20
2018-10-03T02:58:31.268Z,58.30
2018-10-03T03:00:59.915Z,58.40
2018-10-03T03:03:28.558Z,58.00
2018-10-03T03:05:57.209Z,58.90
2018-10-03T03:08:25.929Z,59.30
2018-10-03T03:10:54.596Z,59.50
2018-10-03T03:13:23.276Z,59.80
2018-10-03T03:15:51.924Z,60.00
2018-10-03T03:18:20.604Z,60.10
2018-10-03T03:20:49.261Z,60.40
2018-10-03T03:23:17.930Z,60.80
2018-10-03T03:25:46.572Z,60.90
2018-10-03T03:28:15.233Z,61.40
2018-10-03T03:30:43.860Z,61.30
2018-10-03T03:33:12.520Z,61.30
2018-10-03T03:35:41.206Z,60.90
2018-10-03T03:38:09.849Z,60.50
2018-10-03T03:40:38.513Z,60.50
2018-10-03T03:43:07.185Z,60.70
2018-10-03T03:45:35.860Z,61.20
2018-10-03T03:48:04.525Z,62.30
2018-10-03T03:50:33.152Z,62.20
2018-10-03T03:53:01.820Z,63.00
2018-10-03T03:55:30.497Z,63.60
2018-10-03T03:57:59.136Z,63.80
2018-10-03T04:00:27.776Z,64.10
2018-10-03T04:02:56.432Z,64.00
2018-10-03T04:05:25.048Z,64.30
2018-10-03T04:07:54.013Z,64.10
2018-10-03T04:10:22.640Z,64.20
2018-10-03T04:12:51.574Z,64.60
2018-10-03T04:15:20.682Z,65.00
2018-10-03T04:17:49.332Z,65.20
2018-10-03T04:20:18.012Z,65.60
2018-10-03T04:22:46.648Z,65.70
2018-10-03T04:25:15.357Z,65.70
2018-10-03T04:27:43.993Z,65.70
2018-10-03T04:30:12.676Z,65.60
2018-10-03T04:32:41.319Z,65.50
2018-10-03T04:35:09.939Z,65.60
2018-10-03T04:37:38.609Z,65.40
2018-10-03T04:40:07.322Z,65.50
2018-10-03T04:42:35.976Z,65.80
2018-10-03T04:45:04.799Z,65.90
2018-10-03T04:47:33.414Z,66.30
2018-10-03T04:50:02.045Z,66.10
2018-10-03T04:52:30.677Z,65.90
2018-10-03T04:54:59.316Z,66.10
2018-10-03T04:57:27.932Z,66.50
2018-10-03T04:59:56.579Z,66.50
2018-10-03T05:02:25.213Z,66.90
2018-10-03T05:04:53.844Z,67.10
2018-10-03T05:07:22.504Z,67.00
2018-10-03T05:09:51.131Z,67.40
2018-10-03T05:12:19.774Z,67.70
2018-10-03T05:14:48.427Z,67.70
2018-10-03T05:17:17.029Z,67.60
2018-10-03T05:19:45.712Z,67.40
2018-10-03T05:22:14.409Z,67.90
2018-10-03T05:24:43.037Z,67.30
2018-10-03T05:27:11.765Z,67.30
2018-10-03T05:29:40.418Z,67.50
2018-10-03T05:32:09.102Z,67.70
2018-10-03T05:34:37.744Z,67.70
2018-10-03T05:37:06.538Z,68.20
2018-10-03T05:39:35.217Z,68.40
2018-10-03T05:42:03.965Z,68.20
2018-10-03T05:44:32.648Z,68.80
2018-10-03T05:47:01.299Z,69.00
2018-10-03T05:49:29.959Z,69.30
2018-10-03T05:51:58.620Z,69.20
2018-10-03T05:54:27.267Z,68.40
2018-10-03T05:56:55.920Z,68.40
2018-10-03T05:59:24.580Z,68.90
2018-10-03T06:01:53.322Z,69.20
2018-10-03T06:04:21.964Z,69.60
2018-10-03T06:06:50.614Z,70.00
2018-10-03T06:09:19.344Z,70.10
2018-10-03T06:11:48.001Z,70.30
2018-10-03T06:14:16.673Z,70.40
2018-10-03T06:16:45.311Z,70.70
2018-10-03T06:19:14.001Z,70.70
2018-10-03T06:21:42.757Z,70.80
2018-10-03T06:24:11.472Z,70.60
2018-10-03T06:26:40.172Z,70.50
2018-10-03T06:29:08.941Z,70.50
2018-10-03T06:31:37.636Z,70.50
2018-10-03T06:34:06.284Z,70.70
2018-10-03T06:36:34.932Z,70.40
2018-10-03T06:39:04.184Z,70.30
2018-10-03T06:41:32.824Z,70.20
2018-10-03T06:44:01.482Z,69.80
2018-10-03T06:46:30.129Z,69.40
2018-10-03T06:48:59.064Z,69.30
2018-10-03T06:51:27.712Z,68.60
2018-10-03T06:53:56.397Z,68.90
2018-10-03T06:56:25.081Z,67.70
2018-10-03T06:58:53.769Z,68.10
2018-10-03T07:01:22.415Z,66.90
2018-10-03T07:03:51.052Z,66.30
2018-10-03T07:06:19.736Z,66.20
2018-10-03T07:08:49.258Z,65.70
2018-10-03T07:11:21.947Z,65.20
2018-10-03T07:13:55.019Z,65.00
2018-10-03T07:16:24.811Z,64.70
2018-10-03T07:18:53.531Z,64.40
2018-10-03T07:21:22.215Z,64.00
2018-10-03T07:23:50.945Z,63.50
2018-10-03T07:26:19.731Z,62.90
2018-10-03T07:28:48.436Z,62.60
2018-10-03T07:31:17.500Z,62.40
2018-10-03T07:33:46.211Z,62.20
2018-10-03T07:36:14.877Z,62.80
2018-10-03T07:38:43.568Z,63.10
2018-10-03T07:41:12.240Z,62.00
2018-10-03T07:43:40.912Z,60.70
2018-10-03T07:46:14.756Z,59.60
2018-10-03T07:48:43.460Z,58.60
2018-10-03T07:51:12.145Z,58.00
2018-10-03T07:53:40.891Z,56.80
2018-10-03T07:56:09.552Z,56.30
2018-10-03T07:58:38.217Z,55.70
2018-10-03T08:01:07.097Z,55.40
2018-10-03T08:03:35.768Z,54.30
2018-10-03T08:06:04.456Z,53.70
2018-10-03T08:08:33.101Z,53.30
2018-10-03T08:11:01.745Z,53.30
2018-10-03T08:13:30.411Z,52.70
2018-10-03T08:15:59.165Z,52.60
2018-10-03T08:18:27.818Z,52.40
2018-10-03T08:20:56.516Z,52.00
2018-10-03T08:23:25.194Z,51.80
2018-10-03T08:25:53.852Z,51.80
2018-10-03T08:28:22.498Z,51.30
2018-10-03T08:30:51.194Z,51.00
2018-10-03T08:33:19.952Z,50.90
2018-10-03T08:35:48.663Z,50.60
2018-10-03T08:38:17.285Z,50.60
2018-10-03T08:40:45.947Z,50.70
2018-10-03T08:43:14.588Z,51.00
2018-10-03T08:45:43.323Z,50.70
2018-10-03T08:48:11.964Z,50.80
2018-10-03T08:50:40.596Z,50.90
2018-10-03T08:53:09.261Z,51.10
2018-10-03T08:55:37.915Z,50.80
2018-10-03T08:58:06.660Z,49.90
2018-10-03T09:00:35.265Z,49.90
2018-10-03T09:03:03.936Z,49.60
2018-10-03T09:05:32.613Z,49.50
2018-10-03T09:08:10.583Z,49.30
2018-10-03T09:10:40.741Z,49.40
2018-10-03T09:13:09.508Z,49.80
2018-10-03T09:15:38.200Z,49.30
2018-10-03T09:18:06.889Z,48.90
2018-10-03T09:20:35.786Z,48.20
2018-10-03T09:23:04.861Z,47.90
2018-10-03T09:25:33.560Z,47.50
2018-10-03T09:28:02.541Z,47.60
2018-10-03T09:30:31.297Z,47.50
2018-10-03T09:33:00.226Z,47.30
2018-10-03T09:35:28.899Z,47.10
2018-10-03T09:37:57.548Z,47.20
2018-10-03T09:40:26.253Z,47.10
2018-10-03T09:42:54.902Z,47.10
2018-10-03T09:45:23.561Z,47.00
2018-10-03T09:47:52.261Z,47.00
2018-10-03T09:50:20.961Z,47.40
2018-10-03T09:52:49.609Z,46.90
2018-10-03T09:55:18.244Z,46.40
2018-10-03T09:57:46.912Z,46.50
2018-10-03T10:00:20.038Z,46.60
2018-10-03T10:02:48.706Z,46.20
2018-10-03T10:05:17.349Z,46.00
2018-10-03T10:07:46.033Z,45.70
2018-10-03T10:10:14.711Z,45.60
2018-10-03T10:12:43.390Z,44.90
2018-10-03T10:15:12.136Z,44.80
2018-10-03T10:17:40.770Z,44.70
2018-10-03T10:20:09.428Z,44.10
2018-10-03T10:22:38.097Z,44.00
2018-10-03T10:25:06.811Z,43.90
2018-10-03T10:27:35.459Z,43.60
2018-10-03T10:30:04.205Z,43.00
2018-10-03T10:32:32.934Z,42.70
2018-10-03T10:35:01.536Z,43.20
2018-10-03T10:37:30.301Z,42.10
2018-10-03T10:39:58.973Z,42.10
2018-10-03T10:42:27.652Z,41.90
2018-10-03T10:44:56.276Z,41.70
2018-10-03T10:47:24.927Z,41.20
2018-10-03T10:49:53.580Z,41.20
2018-10-03T10:52:22.323Z,41.10
2018-10-03T10:54:50.961Z,40.80
2018-10-03T10:57:19.664Z,40.80
2018-10-03T10:59:48.414Z,40.60
2018-10-03T11:02:17.065Z,40.90
2018-10-03T11:04:45.761Z,40.60
2018-10-03T11:07:14.414Z,40.60
2018-10-03T11:09:43.160Z,40.60
2018-10-03T11:12:11.815Z,40.60
2018-10-03T11:14:40.465Z,40.60
2018-10-03T11:17:09.150Z,40.50
2018-10-03T11:19:37.919Z,40.20
2018-10-03T11:22:06.609Z,40.00
2018-10-03T11:24:35.431Z,39.90
2018-10-03T11:27:03.960Z,39.90
2018-10-03T11:29:32.641Z,40.00
2018-10-03T11:32:01.285Z,40.10
2018-10-03T11:34:30.061Z,40.00
2018-10-03T11:36:58.981Z,40.00
2018-10-03T11:39:27.697Z,39.90
2018-10-03T11:41:56.329Z,39.90
2018-10-03T11:44:24.981Z,40.10
2018-10-03T11:46:53.663Z,40.10
2018-10-03T11:49:22.305Z,40.10
2018-10-03T11:51:50.933Z,40.10
2018-10-03T11:54:19.613Z,40.20
2018-10-03T11:56:48.301Z,40.20
2018-10-03T11:59:16.976Z,39.90
2018-10-03T12:01:45.641Z,39.70
2018-10-03T12:04:14.297Z,39.90
2018-10-03T12:06:42.928Z,39.70
2018-10-03T12:09:12.713Z,39.60
2018-10-03T12:11:41.440Z,39.70
2018-10-03T12:14:10.493Z,39.60
2018-10-03T12:16:39.705Z,39.40
2018-10-03T12:19:08.412Z,39.30
2018-10-03T12:21:37.839Z,39.20
2018-10-03T12:24:06.481Z,39.00
2018-10-03T12:26:35.147Z,38.90
2018-10-03T12:29:03.791Z,39.10
2018-10-03T12:31:32.436Z,39.20
2018-10-03T12:34:01.100Z,39.50
2018-10-03T12:36:29.822Z,39.40
2018-10-03T12:38:58.514Z,39.50
2018-10-03T12:41:27.156Z,39.30
2018-10-03T12:43:56.269Z,39.30
2018-10-03T12:46:24.933Z,39.30
2018-10-03T12:48:53.588Z,39.70
2018-10-03T12:51:22.227Z,39.70
2018-10-03T12:53:50.853Z,39.20
2018-10-03T12:56:19.506Z,39.40
2018-10-03T12:58:48.145Z,40.00
2018-10-03T13:01:16.826Z,39.40
2018-10-03T13:03:45.495Z,39.60
2018-10-03T13:06:14.166Z,40.00
2018-10-03T13:08:42.779Z,40.00
2018-10-03T13:11:11.454Z,40.30
2018-10-03T13:13:40.092Z,41.00
2018-10-03T13:16:08.916Z,40.40
2018-10-03T13:18:37.568Z,39.90
2018-10-03T13:21:06.257Z,39.90
2018-10-03T13:23:34.900Z,39.50
2018-10-03T13:26:03.564Z,39.60
2018-10-03T13:28:32.238Z,39.50
2018-10-03T13:31:00.888Z,40.20
2018-10-03T13:33:29.520Z,39.40
2018-10-03T13:35:58.172Z,39.50
2018-10-03T13:38:26.813Z,39.40
2018-10-03T13:40:55.496Z,39.40
2018-10-03T13:43:24.177Z,39.40
2018-10-03T13:45:52.832Z,39.20
2018-10-03T13:48:21.493Z,39.50
2018-10-03T13:50:50.154Z,39.30
2018-10-03T13:53:18.796Z,39.40
2018-10-03T13:55:47.453Z,39.40
2018-10-03T13:58:16.099Z,39.60
2018-10-03T14:00:44.805Z,39.50
2018-10-03T14:03:13.519Z,39.70
2018-10-03T14:05:42.186Z,39.50
2018-10-03T14:08:10.842Z,39.60
2018-10-03T14:10:39.491Z,39.80
2018-10-03T14:13:08.242Z,39.80
2018-10-03T14:15:36.919Z,40.10
2018-10-03T14:18:05.609Z,40.00
2018-10-03T14:20:34.274Z,40.00
2018-10-03T14:23:02.920Z,40.20
2018-10-03T14:25:31.561Z,40.30
2018-10-03T14:28:00.200Z,40.30
2018-10-03T14:30:28.838Z,40.50
2018-10-03T14:32:57.970Z,40.60
2018-10-03T14:35:26.621Z,40.70
2018-10-03T14:37:55.319Z,41.00
2018-10-03T14:40:23.976Z,41.00
2018-10-03T14:42:52.599Z,41.40
2018-10-03T14:45:21.274Z,41.50
2018-10-03T14:47:49.892Z,41.70
2018-10-03T14:50:18.592Z,41.70
2018-10-03T14:52:47.231Z,41.90
2018-10-03T14:55:15.884Z,41.80
2018-10-03T14:57:44.520Z,42.00
2018-10-03T15:00:13.187Z,42.40
2018-10-03T15:02:41.855Z,42.40
2018-10-03T15:05:10.554Z,42.50
2018-10-03T15:07:39.237Z,42.80
2018-10-03T15:10:07.925Z,42.90
2018-10-03T15:12:36.576Z,43.00
2018-10-03T15:15:05.601Z,43.10
2018-10-03T15:17:34.248Z,43.10
2018-10-03T15:20:02.940Z,43.20
2018-10-03T15:22:31.608Z,43.40
2018-10-03T15:25:00.228Z,43.70
2018-10-03T15:27:28.901Z,43.70
2018-10-03T15:29:57.635Z,43.70
2018-10-03T15:32:26.317Z,43.90
2018-10-03T15:34:54.960Z,44.20
2018-10-03T15:37:23.621Z,44.10
2018-10-03T15:39:52.276Z,44.20
2018-10-03T15:42:20.941Z,44.40
2018-10-03T15:44:49.585Z,44.70
2018-10-03T15:47:18.285Z,44.60
2018-10-03T15:49:46.893Z,44.70
2018-10-03T15:52:15.606Z,44.70
2018-10-03T15:54:44.326Z,44.70
2018-10-03T15:57:12.989Z,45.50
2018-10-03T15:59:41.801Z,45.00
2018-10-03T16:02:10.437Z,45.10
2018-10-03T16:04:39.109Z,45.10
2018-10-03T16:07:07.759Z,45.20
2018-10-03T16:09:36.426Z,45.30
2018-10-03T16:12:05.118Z,45.50
2018-10-03T16:14:33.902Z,45.70
2018-10-03T16:17:03.488Z,45.80
2018-10-03T16:19:32.163Z,46.00
2018-10-03T16:22:00.835Z,46.20
2018-10-03T16:24:29.473Z,46.30
2018-10-03T16:26:58.160Z,46.50
2018-10-03T16:29:26.861Z,46.60
2018-10-03T16:31:55.500Z,46.70
2018-10-03T16:34:24.141Z,46.80
2018-10-03T16:36:52.816Z,47.00
2018-10-03T16:39:21.487Z,47.00
2018-10-03T16:41:50.156Z,47.10
2018-10-03T16:44:18.840Z,47.20
2018-10-03T16:46:47.509Z,47.40
2018-10-03T16:49:16.160Z,47.50
2018-10-03T16:51:44.869Z,47.60
2018-10-03T16:54:13.576Z,47.70
2018-10-03T16:56:42.232Z,47.80
2018-10-03T16:59:10.889Z,47.90
2018-10-03T17:01:39.526Z,48.00
2018-10-03T17:04:08.207Z,48.20
2018-10-03T17:06:37.017Z,48.30
2018-10-03T17:09:06.827Z,48.40
2018-10-03T17:11:35.864Z,48.40
2018-10-03T17:14:24.713Z,48.60
2018-10-03T17:16:54.277Z,48.70
2018-10-03T17:19:22.975Z,48.70
2018-10-03T17:21:52.323Z,48.90
2018-10-03T17:24:22.228Z,49.10
2018-10-03T17:26:50.893Z,49.10
2018-10-03T17:29:19.543Z,49.30
2018-10-03T17:31:48.317Z,49.30
2018-10-03T17:34:17.684Z,49.60
2018-10-03T17:36:49.605Z,49.70
2018-10-03T17:39:18.580Z,49.80
2018-10-03T17:41:47.381Z,50.00
2018-10-03T17:44:17.021Z,50.10
2018-10-03T17:46:46.328Z,50.00
2018-10-03T17:49:14.968Z,50.00
2018-10-03T17:51:43.711Z,50.20
2018-10-03T17:54:12.420Z,50.30
2018-10-03T17:56:41.075Z,50.50
2018-10-03T17:59:10.259Z,50.70
2018-10-03T18:01:50.219Z,50.80
2018-10-03T18:04:18.946Z,51.10
2018-10-03T18:06:59.581Z,51.30
2018-10-03T18:09:44.488Z,51.50
2018-10-03T18:12:13.243Z,51.50
2018-10-03T18:14:43.788Z,51.60
2018-10-03T18:17:15.124Z,51.80
2018-10-03T18:19:54.777Z,52.50
2018-10-03T18:22:41.257Z,51.80
2018-10-03T18:25:12.399Z,51.80
2018-10-03T18:27:59.417Z,52.00
2018-10-03T18:30:42.579Z,52.20
2018-10-03T18:33:18.263Z,52.30
2018-10-03T18:35:46.934Z,52.40
2018-10-03T18:38:16.153Z,52.60
2018-10-03T18:40:45.904Z,52.80
2018-10-03T18:43:15.210Z,52.90
2018-10-03T18:45:44.644Z,53.00
2018-10-03T18:48:39.450Z,53.20
2018-10-03T18:51:21.525Z,53.40
2018-10-03T18:53:50.418Z,53.60
2018-10-03T18:56:19.748Z,53.40
2018-10-03T18:58:52.038Z,53.70
2018-10-03T19:01:20.702Z,53.80
2018-10-03T19:03:49.425Z,54.00
2018-10-03T19:06:18.190Z,53.90
2018-10-03T19:08:48.776Z,54.10
2018-10-03T19:11:17.488Z,54.10
2018-10-03T19:13:46.201Z,53.90
2018-10-03T19:16:14.825Z,54.00
2018-10-03T19:18:43.431Z,54.30
2018-10-03T19:21:12.078Z,54.70
2018-10-03T19:23:40.728Z,54.50
2018-10-03T19:26:09.488Z,54.70
2018-10-03T19:28:38.149Z,54.60
2018-10-03T19:31:06.776Z,54.70
2018-10-03T19:33:35.411Z,54.80
2018-10-03T19:36:04.095Z,54.90
2018-10-03T19:38:32.764Z,54.80
2018-10-03T19:41:01.418Z,55.30
2018-10-03T19:43:30.115Z,55.40
2018-10-03T19:45:58.852Z,55.40
2018-10-03T19:48:27.551Z,55.50
2018-10-03T19:50:56.192Z,55.50
2018-10-03T19:53:30.202Z,55.40
2018-10-03T19:55:59.061Z,55.30
2018-10-03T19:58:27.709Z,55.30
2018-10-03T20:00:56.411Z,55.40
2018-10-03T20:03:25.069Z,55.70
2018-10-03T20:05:53.768Z,55.80
2018-10-03T20:08:22.383Z,56.50
2018-10-03T20:10:51.167Z,56.10
2018-10-03T20:13:20.185Z,56.30
2018-10-03T20:15:48.889Z,56.50
2018-10-03T20:18:17.533Z,56.50
2018-10-03T20:20:46.243Z,56.90
2018-10-03T20:23:14.897Z,56.90
2018-10-03T20:25:43.541Z,57.20
2018-10-03T20:28:12.226Z,57.20
2018-10-03T20:30:40.912Z,57.30
2018-10-03T20:33:09.602Z,57.70
2018-10-03T20:35:38.555Z,57.80
2018-10-03T20:38:07.264Z,58.00
2018-10-03T20:40:36.037Z,58.40
2018-10-03T20:43:04.791Z,58.60
2018-10-03T20:45:33.435Z,58.80
2018-10-03T20:48:02.128Z,58.80
2018-10-03T20:50:30.765Z,58.80
2018-10-03T20:52:59.431Z,58.90
2018-10-03T20:55:28.088Z,58.80
2018-10-03T20:57:56.745Z,58.90
2018-10-03T21:00:25.457Z,58.70
2018-10-03T21:02:54.098Z,58.60
2018-10-03T21:05:22.749Z,58.50
2018-10-03T21:07:51.449Z,58.40
2018-10-03T21:10:20.096Z,58.40
2018-10-03T21:12:48.714Z,58.40
2018-10-03T21:15:17.396Z,58.40
2018-10-03T21:17:46.053Z,58.30
2018-10-03T21:20:14.833Z,58.40
2018-10-03T21:22:43.513Z,58.70
2018-10-03T21:25:12.162Z,58.60
2018-10-03T21:27:40.793Z,58.80
2018-10-03T21:30:09.472Z,58.90
2018-10-03T21:32:38.308Z,59.10
2018-10-03T21:35:07.221Z,59.40
2018-10-03T21:37:35.857Z,59.50
2018-10-03T21:40:04.613Z,59.50
2018-10-03T21:42:33.260Z,59.60
2018-10-03T21:45:01.964Z,60.00
2018-10-03T21:47:30.663Z,60.00
2018-10-03T21:49:59.309Z,60.20
2018-10-03T21:52:27.961Z,60.50
2018-10-03T21:54:56.597Z,60.60
2018-10-03T21:57:26.226Z,60.90
2018-10-03T21:59:54.854Z,61.10
2018-10-03T22:02:23.500Z,61.00
2018-10-03T22:04:52.169Z,61.70
2018-10-03T22:07:20.863Z,60.80
2018-10-03T22:09:49.528Z,60.90
2018-10-03T22:12:18.149Z,60.90
2018-10-03T22:14:46.767Z,60.90
2018-10-03T22:17:20.868Z,61.30
2018-10-03T22:19:49.565Z,61.40
2018-10-03T22:22:18.241Z,61.80
2018-10-03T22:24:46.964Z,62.20
2018-10-03T22:27:16.049Z,62.50
2018-10-03T22:29:45.067Z,63.00
2018-10-03T22:32:13.744Z,63.20
2018-10-03T22:34:42.480Z,63.60
2018-10-03T22:37:11.545Z,63.70
2018-10-03T22:39:41.032Z,63.70
2018-10-03T22:42:09.743Z,64.10
2018-10-03T22:44:38.364Z,64.00
2018-10-03T22:47:07.180Z,63.60
2018-10-03T22:49:35.912Z,63.60
2018-10-03T22:52:04.556Z,63.40
2018-10-03T22:54:33.216Z,63.30
2018-10-03T22:57:01.838Z,63.00
2018-10-03T22:59:30.484Z,63.10
2018-10-03T23:01:59.194Z,63.10
2018-10-03T23:04:28.406Z,63.10
2018-10-03T23:06:57.050Z,63.30
2018-10-03T23:09:25.765Z,63.60
2018-10-03T23:11:54.452Z,63.90
2018-10-03T23:14:23.081Z,63.90
2018-10-03T23:16:51.699Z,64.10
2018-10-03T23:19:20.345Z,64.20
2018-10-03T23:21:48.976Z,64.60
2018-10-03T23:24:17.601Z,64.40
2018-10-03T23:26:46.212Z,64.70
2018-10-03T23:29:14.839Z,64.80
2018-10-03T23:31:43.473Z,65.00
2018-10-03T23:34:12.092Z,65.40
2018-10-03T23:36:40.733Z,65.80
2018-10-03T23:39:11.141Z,65.90
2018-10-03T23:41:40.023Z,66.00
2018-10-03T23:44:09.008Z,65.90
2018-10-03T23:46:37.643Z,65.80
2018-10-03T23:49:06.295Z,65.50
2018-10-03T23:51:34.977Z,65.40
2018-10-03T23:54:03.625Z,65.70
2018-10-03T23:56:32.295Z,66.20
2018-10-03T23:59:00.936Z,66.00
